Freeport, Minnesota
Current Conditions -  °F | °C
As of 4:13 AM on Saturday 22 Nov 2014 (Local Time) from KD39 Reporting Station
Clear Clear  
Wind Chill: 25°   Ceiling: Unl
Heat Index: 25°   Visibility: 7mi
Dew Point: 23°   Wind: 0mph
Humidity: 94%   Direction: NA
Pressure: 29.72"   Gusts: NA
Location:  45.66°N, 94.69°W
Report Text: KD39 221013Z AUTO 00000KT 7SM CLR M04/M05 A2972 RMK AO2 T10411050
Loading
Personal Weather Stations






























Interactive Weather Map New forecast layout! Learn more

10-Day Weather Forecast

Advertisements
Track Severe Weather on mobile